createdAt,value
2019-01-08T00:01:47.357Z,3.30
2019-01-08T00:04:19.043Z,3.30
2019-01-08T00:06:51.398Z,3.20
2019-01-08T00:09:22.876Z,3.30
2019-01-08T00:11:54.395Z,3.30
2019-01-08T00:14:26.211Z,3.30
2019-01-08T00:16:57.840Z,3.30
2019-01-08T00:19:29.379Z,3.30
2019-01-08T00:22:00.775Z,3.20
2019-01-08T00:24:32.425Z,3.30
2019-01-08T00:27:03.696Z,3.30
2019-01-08T00:29:35.049Z,3.30
2019-01-08T00:32:07.205Z,3.20
2019-01-08T00:34:39.067Z,3.30
2019-01-08T00:37:10.473Z,3.30
2019-01-08T00:39:41.922Z,3.30
2019-01-08T00:42:13.594Z,3.30
2019-01-08T00:44:45.433Z,3.30
2019-01-08T00:47:16.786Z,3.30
2019-01-08T00:49:48.226Z,3.30
2019-01-08T00:52:19.652Z,3.30
2019-01-08T00:54:51.441Z,3.30
2019-01-08T00:57:23.018Z,3.30
2019-01-08T00:59:54.663Z,3.30
2019-01-08T01:02:26.751Z,3.20
2019-01-08T01:04:58.167Z,3.30
2019-01-08T01:07:29.747Z,3.30
2019-01-08T01:10:02.328Z,3.30
2019-01-08T01:12:39.316Z,3.30
2019-01-08T01:15:10.803Z,3.30
2019-01-08T01:17:42.213Z,3.30
2019-01-08T01:20:13.994Z,3.30
2019-01-08T01:22:46.122Z,3.30
2019-01-08T01:25:17.520Z,3.30
2019-01-08T01:27:48.964Z,3.30
2019-01-08T01:30:20.568Z,3.40
2019-01-08T01:32:52.839Z,3.30
2019-01-08T01:35:24.244Z,3.30
2019-01-08T01:37:55.572Z,3.30
2019-01-08T01:40:26.842Z,3.30
2019-01-08T01:43:01.130Z,3.40
2019-01-08T01:45:32.671Z,3.30
2019-01-08T01:48:05.066Z,3.30
2019-01-08T01:50:36.763Z,3.30
2019-01-08T01:53:13.498Z,3.20
2019-01-08T01:55:45.854Z,3.20
2019-01-08T01:58:17.336Z,3.20
2019-01-08T02:00:48.928Z,3.20
2019-01-08T02:03:20.508Z,3.20
2019-01-08T02:05:52.425Z,3.30
2019-01-08T02:08:23.801Z,3.20
2019-01-08T02:10:55.024Z,3.30
2019-01-08T02:13:26.724Z,3.20
2019-01-08T02:15:58.291Z,3.20
2019-01-08T02:18:30.247Z,3.20
2019-01-08T02:21:01.725Z,3.20
2019-01-08T02:23:33.331Z,3.20
2019-01-08T02:26:05.269Z,3.30
2019-01-08T02:28:36.745Z,3.30
2019-01-08T02:31:08.212Z,3.20
2019-01-08T02:33:40.090Z,3.30
2019-01-08T02:36:11.792Z,3.30
2019-01-08T02:38:43.378Z,3.30
2019-01-08T02:41:14.910Z,3.20
2019-01-08T02:43:52.065Z,3.30
2019-01-08T02:46:23.610Z,3.30
2019-01-08T02:48:55.013Z,3.30
2019-01-08T02:51:26.438Z,3.30
2019-01-08T02:53:57.785Z,3.30
2019-01-08T02:56:29.245Z,3.20
2019-01-08T02:59:00.827Z,3.20
2019-01-08T03:01:32.081Z,3.20
2019-01-08T03:04:03.889Z,3.20
2019-01-08T03:06:35.487Z,3.20
2019-01-08T03:09:07.662Z,3.20
2019-01-08T03:11:39.053Z,3.20
2019-01-08T03:14:10.748Z,3.10
2019-01-08T03:16:42.088Z,3.20
2019-01-08T03:19:14.710Z,3.20
2019-01-08T03:21:46.546Z,3.20
2019-01-08T03:24:18.282Z,3.10
2019-01-08T03:26:49.522Z,3.20
2019-01-08T03:29:20.879Z,3.20
2019-01-08T03:31:52.695Z,3.10
2019-01-08T03:34:24.377Z,3.10
2019-01-08T03:36:55.684Z,3.10
2019-01-08T03:39:27.247Z,3.10
2019-01-08T03:41:58.711Z,3.20
2019-01-08T03:44:29.925Z,3.20
2019-01-08T03:47:03.044Z,3.20
2019-01-08T03:49:34.415Z,3.20
2019-01-08T03:52:05.898Z,3.20
2019-01-08T03:54:37.838Z,3.20
2019-01-08T03:57:09.378Z,3.20
2019-01-08T03:59:42.072Z,3.20
2019-01-08T04:02:13.784Z,3.30
2019-01-08T04:04:45.344Z,3.30
2019-01-08T04:07:16.960Z,3.30
2019-01-08T04:09:48.330Z,3.30
2019-01-08T04:12:20.146Z,3.20
2019-01-08T04:14:51.639Z,3.30
2019-01-08T04:17:23.128Z,3.20
2019-01-08T04:19:54.741Z,3.30
2019-01-08T04:22:27.283Z,3.20
2019-01-08T04:24:58.989Z,3.20
2019-01-08T04:27:30.879Z,3.20
2019-01-08T04:30:02.768Z,3.20
2019-01-08T04:32:34.962Z,3.30
2019-01-08T04:35:06.333Z,3.30
2019-01-08T04:37:37.591Z,3.20
2019-01-08T04:40:09.079Z,3.30
2019-01-08T04:42:46.108Z,3.30
2019-01-08T04:45:17.455Z,3.30
2019-01-08T04:47:48.932Z,3.30
2019-01-08T04:50:20.497Z,3.20
2019-01-08T04:52:57.138Z,3.20
2019-01-08T04:55:28.605Z,3.20
2019-01-08T04:58:00.127Z,3.20
2019-01-08T05:00:31.859Z,3.20
2019-01-08T05:03:08.662Z,3.30
2019-01-08T05:05:40.168Z,3.30
2019-01-08T05:08:12.047Z,3.30
2019-01-08T05:10:43.435Z,3.30
2019-01-08T05:13:20.418Z,3.30
2019-01-08T05:15:52.187Z,3.40
2019-01-08T05:18:23.834Z,3.40
2019-01-08T05:20:55.184Z,3.40
2019-01-08T05:23:26.732Z,3.30
2019-01-08T05:25:58.952Z,3.40
2019-01-08T05:28:30.216Z,3.40
2019-01-08T05:31:01.943Z,3.40
2019-01-08T05:33:33.516Z,3.40
2019-01-08T05:36:05.237Z,3.30
2019-01-08T05:38:38.291Z,3.30
2019-01-08T05:41:09.777Z,3.40
2019-01-08T05:43:41.691Z,3.40
2019-01-08T05:46:13.493Z,3.40
2019-01-08T05:48:45.141Z,3.50
2019-01-08T05:51:16.778Z,3.50
2019-01-08T05:53:49.090Z,3.40
2019-01-08T05:56:20.763Z,3.40
2019-01-08T05:58:52.575Z,3.50
2019-01-08T06:01:24.398Z,3.50
2019-01-08T06:04:01.804Z,3.50
2019-01-08T06:06:33.105Z,3.50
2019-01-08T06:09:05.395Z,3.50
2019-01-08T06:11:37.226Z,3.50
2019-01-08T06:14:09.037Z,3.50
2019-01-08T06:16:40.466Z,3.60
2019-01-08T06:19:12.452Z,3.50
2019-01-08T06:21:43.923Z,3.60
2019-01-08T06:24:15.421Z,3.60
2019-01-08T06:26:46.965Z,3.60
2019-01-08T06:29:18.487Z,3.70
2019-01-08T06:31:50.182Z,3.80
2019-01-08T06:34:21.948Z,3.70
2019-01-08T06:36:53.864Z,3.70
2019-01-08T06:39:25.376Z,3.70
2019-01-08T06:41:56.852Z,3.70
2019-01-08T06:44:28.652Z,3.60
2019-01-08T06:47:00.219Z,3.60
2019-01-08T06:49:31.714Z,3.60
2019-01-08T06:52:03.265Z,3.60
2019-01-08T06:54:34.793Z,3.70
2019-01-08T06:57:06.391Z,3.70
2019-01-08T06:59:38.689Z,3.70
2019-01-08T07:02:10.049Z,3.70
2019-01-08T07:04:41.617Z,3.70
2019-01-08T07:07:13.249Z,3.70
2019-01-08T07:09:45.146Z,3.70
2019-01-08T07:12:16.664Z,3.70
2019-01-08T07:14:48.132Z,3.70
2019-01-08T07:17:19.954Z,3.70
2019-01-08T07:19:52.583Z,3.70
2019-01-08T07:22:24.506Z,3.70
2019-01-08T07:24:56.080Z,3.70
2019-01-08T07:27:27.638Z,3.70
2019-01-08T07:29:59.391Z,3.70
2019-01-08T07:32:35.977Z,3.70
2019-01-08T07:35:07.449Z,3.80
2019-01-08T07:37:38.861Z,3.70
2019-01-08T07:40:10.592Z,3.80
2019-01-08T07:42:42.075Z,3.80
2019-01-08T07:45:13.749Z,3.80
2019-01-08T07:47:45.582Z,3.80
2019-01-08T07:50:16.991Z,3.80
2019-01-08T07:52:53.173Z,3.80
2019-01-08T07:55:24.778Z,3.80
2019-01-08T07:57:56.107Z,3.90
2019-01-08T08:00:27.445Z,3.90
2019-01-08T08:02:58.921Z,4.00
2019-01-08T08:05:30.307Z,4.00
2019-01-08T08:08:01.919Z,4.00
2019-01-08T08:10:33.286Z,4.10
2019-01-08T08:13:05.185Z,4.10
2019-01-08T08:15:36.595Z,4.10
2019-01-08T08:18:08.217Z,4.20
2019-01-08T08:20:39.531Z,4.20
2019-01-08T08:23:11.283Z,4.20
2019-01-08T08:25:43.064Z,4.30
2019-01-08T08:28:14.637Z,4.40
2019-01-08T08:30:46.632Z,4.40
2019-01-08T08:33:18.187Z,4.40
2019-01-08T08:35:49.582Z,4.50
2019-01-08T08:38:20.972Z,4.40
2019-01-08T08:40:52.672Z,4.40
2019-01-08T08:43:24.301Z,4.40
2019-01-08T08:45:55.692Z,4.50
2019-01-08T08:48:27.098Z,4.60
2019-01-08T08:50:58.483Z,4.60
2019-01-08T08:53:29.818Z,4.60
2019-01-08T08:56:01.353Z,4.50
2019-01-08T08:58:32.965Z,4.60
2019-01-08T09:01:07.115Z,4.60
2019-01-08T09:03:37.299Z,4.70
2019-01-08T09:06:08.679Z,4.70
2019-01-08T09:08:40.041Z,4.70
2019-01-08T09:11:11.284Z,4.70
2019-01-08T09:13:43.145Z,4.80
2019-01-08T09:16:14.494Z,4.80
2019-01-08T09:18:46.379Z,4.80
2019-01-08T09:21:17.665Z,4.70
2019-01-08T09:23:49.383Z,4.80
2019-01-08T09:26:21.007Z,4.80
2019-01-08T09:28:52.695Z,4.90
2019-01-08T09:31:24.310Z,4.90
2019-01-08T09:33:55.683Z,4.90
2019-01-08T09:36:27.063Z,4.90
2019-01-08T09:38:58.442Z,4.90
2019-01-08T09:41:29.691Z,5.00
2019-01-08T09:44:01.566Z,5.00
2019-01-08T09:46:33.160Z,5.00
2019-01-08T09:49:05.532Z,5.00
2019-01-08T09:51:36.937Z,5.10
2019-01-08T09:54:08.792Z,5.10
2019-01-08T09:56:40.282Z,5.10
2019-01-08T09:59:11.741Z,5.00
2019-01-08T10:01:43.512Z,5.00
2019-01-08T10:04:15.197Z,5.00
2019-01-08T10:06:48.311Z,5.00
2019-01-08T10:09:19.943Z,5.00
2019-01-08T10:11:51.907Z,5.00
2019-01-08T10:14:23.368Z,5.20
2019-01-08T10:16:55.117Z,5.30
2019-01-08T10:19:26.395Z,5.40
2019-01-08T10:21:57.960Z,5.40
2019-01-08T10:24:29.722Z,5.50
2019-01-08T10:27:01.059Z,5.50
2019-01-08T10:29:33.749Z,5.40
2019-01-08T10:32:05.142Z,5.50
2019-01-08T10:34:36.473Z,5.60
2019-01-08T10:37:07.892Z,5.70
2019-01-08T10:39:39.320Z,5.50
2019-01-08T10:42:10.799Z,5.50
2019-01-08T10:44:42.674Z,5.60
2019-01-08T10:47:14.286Z,5.60
2019-01-08T10:49:46.397Z,5.70
2019-01-08T10:52:18.111Z,5.60
2019-01-08T10:54:49.636Z,5.70
2019-01-08T10:57:21.241Z,5.70
2019-01-08T10:59:53.174Z,5.70
2019-01-08T11:02:24.547Z,5.70
2019-01-08T11:04:55.838Z,5.80
2019-01-08T11:07:27.386Z,5.70
2019-01-08T11:09:58.760Z,5.70
2019-01-08T11:12:30.132Z,5.70
2019-01-08T11:15:01.589Z,5.70
2019-01-08T11:17:33.276Z,5.70
2019-01-08T11:20:04.859Z,5.90
2019-01-08T11:22:36.541Z,6.00
2019-01-08T11:25:08.021Z,6.00
2019-01-08T11:27:39.572Z,6.00
2019-01-08T11:30:11.074Z,6.00
2019-01-08T11:32:42.581Z,5.90
2019-01-08T11:35:13.955Z,5.90
2019-01-08T11:37:45.718Z,6.00
2019-01-08T11:40:17.511Z,6.10
2019-01-08T11:42:54.796Z,6.10
2019-01-08T11:45:26.442Z,6.20
2019-01-08T11:48:03.853Z,6.10
2019-01-08T11:50:31.119Z,6.10
2019-01-08T11:53:02.464Z,6.10
2019-01-08T11:55:33.750Z,6.10
2019-01-08T11:58:05.085Z,6.20
2019-01-08T12:00:36.706Z,6.30
2019-01-08T12:03:13.621Z,6.40
2019-01-08T12:05:45.447Z,6.30
2019-01-08T12:08:16.809Z,6.40
2019-01-08T12:10:48.614Z,6.40
2019-01-08T12:13:20.640Z,6.50
2019-01-08T12:15:52.408Z,6.40
2019-01-08T12:18:23.898Z,6.30
2019-01-08T12:20:55.410Z,6.20
2019-01-08T12:23:26.894Z,6.10
2019-01-08T12:25:58.508Z,6.00
2019-01-08T12:28:30.138Z,6.20
2019-01-08T12:31:01.498Z,6.10
2019-01-08T12:33:33.077Z,6.10
2019-01-08T12:36:04.516Z,6.10
2019-01-08T12:38:35.936Z,6.20
2019-01-08T12:41:07.558Z,6.40
2019-01-08T12:43:39.153Z,6.50
2019-01-08T12:46:10.809Z,6.60
2019-01-08T12:48:42.117Z,6.60
2019-01-08T12:51:13.764Z,6.50
2019-01-08T12:53:45.609Z,6.40
2019-01-08T12:56:18.538Z,6.40
2019-01-08T12:58:51.692Z,6.30
2019-01-08T13:01:23.000Z,6.20
2019-01-08T13:03:59.666Z,6.20
2019-01-08T13:06:31.218Z,6.10
2019-01-08T13:09:02.916Z,6.00
2019-01-08T13:11:35.592Z,5.90
2019-01-08T13:14:12.140Z,5.80
2019-01-08T13:16:44.495Z,5.90
2019-01-08T13:19:15.947Z,5.90
2019-01-08T13:21:47.656Z,5.80
2019-01-08T13:24:19.260Z,5.80
2019-01-08T13:26:50.829Z,5.90
2019-01-08T13:29:22.179Z,5.80
2019-01-08T13:31:53.495Z,5.90
2019-01-08T13:34:24.936Z,5.90
2019-01-08T13:36:56.647Z,5.90
2019-01-08T13:39:28.419Z,6.00
2019-01-08T13:41:59.730Z,5.90
2019-01-08T13:44:31.516Z,5.80
2019-01-08T13:47:03.365Z,5.80
2019-01-08T13:49:34.837Z,5.60
2019-01-08T13:52:06.479Z,5.70
2019-01-08T13:54:37.992Z,5.70
2019-01-08T13:57:09.377Z,5.60
2019-01-08T13:59:40.627Z,5.60
2019-01-08T14:02:12.597Z,5.60
2019-01-08T14:04:44.202Z,5.60
2019-01-08T14:07:15.623Z,5.60
2019-01-08T14:09:47.082Z,5.60
2019-01-08T14:12:18.727Z,5.60
2019-01-08T14:14:50.048Z,5.70
2019-01-08T14:17:21.569Z,5.60
2019-01-08T14:19:53.604Z,5.50
2019-01-08T14:22:25.283Z,5.50
2019-01-08T14:24:56.588Z,5.50
2019-01-08T14:27:27.964Z,5.50
2019-01-08T14:29:59.353Z,5.50
2019-01-08T14:32:31.023Z,5.40
2019-01-08T14:35:02.313Z,5.40
2019-01-08T14:37:34.866Z,5.30
2019-01-08T14:40:06.717Z,5.30
2019-01-08T14:42:38.620Z,5.40
2019-01-08T14:45:10.405Z,5.30
2019-01-08T14:47:43.440Z,5.40
2019-01-08T14:50:15.075Z,5.40
2019-01-08T14:52:48.525Z,5.40
2019-01-08T14:55:19.774Z,5.30
2019-01-08T14:57:51.413Z,5.30
2019-01-08T15:00:22.654Z,5.10
2019-01-08T15:02:59.249Z,5.20
2019-01-08T15:05:30.537Z,5.10
2019-01-08T15:08:01.909Z,5.10
2019-01-08T15:10:33.343Z,5.00
2019-01-08T15:13:04.846Z,5.10
2019-01-08T15:15:36.293Z,5.10
2019-01-08T15:18:07.912Z,5.20
2019-01-08T15:20:39.216Z,5.20
2019-01-08T15:23:10.953Z,5.20
2019-01-08T15:25:42.672Z,5.10
2019-01-08T15:28:14.310Z,5.10
2019-01-08T15:30:46.218Z,5.10
2019-01-08T15:33:17.839Z,5.10
2019-01-08T15:35:49.620Z,5.00
2019-01-08T15:38:21.570Z,4.90
2019-01-08T15:40:53.073Z,5.00
2019-01-08T15:43:24.620Z,4.90
2019-01-08T15:45:55.890Z,5.00
2019-01-08T15:48:27.742Z,4.90
2019-01-08T15:50:59.842Z,4.80
2019-01-08T15:53:32.260Z,4.80
2019-01-08T15:56:04.311Z,4.80
2019-01-08T15:58:35.598Z,4.70
2019-01-08T16:01:06.999Z,4.70
2019-01-08T16:03:38.447Z,4.60
2019-01-08T16:06:10.031Z,4.70
2019-01-08T16:08:41.497Z,4.70
2019-01-08T16:11:12.965Z,4.70
2019-01-08T16:13:44.719Z,4.70
2019-01-08T16:16:16.121Z,4.60
2019-01-08T16:18:47.683Z,4.60
2019-01-08T16:21:19.272Z,4.60
2019-01-08T16:23:51.326Z,4.60
2019-01-08T16:26:22.900Z,4.60
2019-01-08T16:28:54.545Z,4.60
2019-01-08T16:31:26.288Z,4.60
2019-01-08T16:33:58.949Z,4.60
2019-01-08T16:36:30.223Z,4.60
2019-01-08T16:39:01.921Z,4.60
2019-01-08T16:41:34.399Z,4.50
2019-01-08T16:44:06.185Z,4.50
2019-01-08T16:46:37.613Z,4.50
2019-01-08T16:49:08.948Z,4.50
2019-01-08T16:51:40.422Z,4.50
2019-01-08T16:54:13.042Z,4.50
2019-01-08T16:56:44.649Z,4.40
2019-01-08T16:59:17.290Z,4.40
2019-01-08T17:01:48.531Z,4.50
2019-01-08T17:04:20.486Z,4.50
2019-01-08T17:06:52.041Z,4.50
2019-01-08T17:09:23.630Z,4.40
2019-01-08T17:11:55.098Z,4.50
2019-01-08T17:14:26.918Z,4.50
2019-01-08T17:16:58.342Z,4.50
2019-01-08T17:19:29.619Z,4.50
2019-01-08T17:22:01.237Z,4.60
2019-01-08T17:24:37.775Z,4.60
2019-01-08T17:27:09.047Z,4.50
2019-01-08T17:29:40.587Z,4.50
2019-01-08T17:32:12.359Z,4.50
2019-01-08T17:34:43.848Z,4.60
2019-01-08T17:37:15.628Z,4.60
2019-01-08T17:39:47.228Z,4.60
2019-01-08T17:42:18.596Z,4.60
2019-01-08T17:44:50.024Z,4.60
2019-01-08T17:47:21.716Z,4.60
2019-01-08T17:49:53.200Z,4.50
2019-01-08T17:52:24.791Z,4.50
2019-01-08T17:54:56.166Z,4.50
2019-01-08T17:57:27.577Z,4.40
2019-01-08T17:59:58.977Z,4.50
2019-01-08T18:02:30.444Z,4.60
2019-01-08T18:05:01.889Z,4.50
2019-01-08T18:07:33.535Z,4.50
2019-01-08T18:10:05.986Z,4.40
2019-01-08T18:12:37.381Z,4.40
2019-01-08T18:15:09.132Z,4.40
2019-01-08T18:17:40.555Z,4.40
2019-01-08T18:20:12.470Z,4.40
2019-01-08T18:22:44.754Z,4.40
2019-01-08T18:25:16.394Z,4.40
2019-01-08T18:27:48.635Z,4.40
2019-01-08T18:30:20.692Z,4.50
2019-01-08T18:32:52.557Z,4.40
2019-01-08T18:35:24.368Z,4.40
2019-01-08T18:37:56.112Z,4.40
2019-01-08T18:40:27.575Z,4.40
2019-01-08T18:43:04.464Z,4.40
2019-01-08T18:45:36.167Z,4.50
2019-01-08T18:48:09.955Z,4.40
2019-01-08T18:50:41.173Z,4.50
2019-01-08T18:53:12.938Z,4.40
2019-01-08T18:55:44.483Z,4.40
2019-01-08T18:58:16.842Z,4.40
2019-01-08T19:00:48.496Z,4.30
2019-01-08T19:03:20.166Z,4.40
2019-01-08T19:05:51.813Z,4.40
2019-01-08T19:08:24.596Z,4.40
2019-01-08T19:10:57.148Z,4.40
2019-01-08T19:13:29.264Z,4.40
2019-01-08T19:16:00.695Z,4.40
2019-01-08T19:18:32.204Z,4.50
2019-01-08T19:21:03.820Z,4.40
2019-01-08T19:23:35.660Z,4.40
2019-01-08T19:26:07.256Z,4.40
2019-01-08T19:28:38.989Z,4.40
2019-01-08T19:31:10.302Z,4.40
2019-01-08T19:33:42.012Z,4.40
2019-01-08T19:36:14.193Z,4.40
2019-01-08T19:38:45.784Z,4.30
2019-01-08T19:41:17.476Z,4.30
2019-01-08T19:43:48.901Z,4.30
2019-01-08T19:46:20.565Z,4.30
2019-01-08T19:48:53.216Z,4.20
2019-01-08T19:51:24.454Z,4.20
2019-01-08T19:54:01.112Z,4.20
2019-01-08T19:56:32.872Z,4.30
2019-01-08T19:59:04.587Z,4.20
2019-01-08T20:01:37.377Z,4.20
2019-01-08T20:04:17.325Z,4.30
2019-01-08T20:06:41.845Z,4.20
2019-01-08T20:09:13.894Z,4.30
2019-01-08T20:11:45.943Z,4.30
2019-01-08T20:14:19.943Z,4.40
2019-01-08T20:16:51.592Z,4.30
2019-01-08T20:19:23.210Z,4.30
2019-01-08T20:21:55.233Z,4.30
2019-01-08T20:24:26.934Z,4.20
2019-01-08T20:26:58.379Z,4.30
2019-01-08T20:29:30.001Z,4.20
2019-01-08T20:32:01.751Z,4.20
2019-01-08T20:34:34.745Z,4.20
2019-01-08T20:37:06.549Z,4.20
2019-01-08T20:39:38.367Z,4.10
2019-01-08T20:42:10.004Z,4.20
2019-01-08T20:44:42.667Z,4.20
2019-01-08T20:47:14.515Z,4.20
2019-01-08T20:49:46.139Z,4.20
2019-01-08T20:52:17.555Z,4.20
2019-01-08T20:54:49.199Z,4.10
2019-01-08T20:57:20.977Z,4.10
2019-01-08T20:59:52.735Z,4.20
2019-01-08T21:02:24.365Z,4.20
2019-01-08T21:04:55.902Z,4.30
2019-01-08T21:07:28.641Z,4.20
2019-01-08T21:10:00.341Z,4.30
2019-01-08T21:12:33.689Z,4.20
2019-01-08T21:15:05.558Z,4.20
2019-01-08T21:17:37.019Z,4.20
2019-01-08T21:20:08.722Z,4.30
2019-01-08T21:22:40.972Z,4.40
2019-01-08T21:25:12.500Z,4.40
2019-01-08T21:27:44.086Z,4.20
2019-01-08T21:30:15.654Z,4.30
2019-01-08T21:32:47.210Z,4.30
2019-01-08T21:35:18.707Z,4.20
2019-01-08T21:37:51.489Z,4.20
2019-01-08T21:40:23.050Z,4.30
2019-01-08T21:42:59.636Z,4.20
2019-01-08T21:45:31.431Z,4.20
2019-01-08T21:48:03.238Z,4.20
2019-01-08T21:50:35.535Z,4.30
2019-01-08T21:53:07.893Z,4.30
2019-01-08T21:55:39.361Z,4.40
2019-01-08T21:58:10.914Z,4.40
2019-01-08T22:00:42.338Z,4.50
2019-01-08T22:03:14.952Z,4.60
2019-01-08T22:05:46.544Z,4.50
2019-01-08T22:08:18.035Z,4.40
2019-01-08T22:10:49.986Z,4.50
2019-01-08T22:13:29.544Z,4.50
2019-01-08T22:16:01.562Z,4.50
2019-01-08T22:18:32.978Z,4.30
2019-01-08T22:21:04.633Z,4.30
2019-01-08T22:23:36.078Z,4.30
2019-01-08T22:26:07.560Z,4.40
2019-01-08T22:28:39.292Z,4.40
2019-01-08T22:31:10.963Z,4.50
2019-01-08T22:33:42.595Z,4.50
2019-01-08T22:36:14.469Z,4.50
2019-01-08T22:38:46.351Z,4.50
2019-01-08T22:41:18.383Z,4.60
2019-01-08T22:43:49.930Z,4.40
2019-01-08T22:46:21.684Z,4.50
2019-01-08T22:48:53.460Z,4.50
2019-01-08T22:51:24.807Z,4.50
2019-01-08T22:54:01.282Z,4.50
2019-01-08T22:56:32.866Z,4.50
2019-01-08T22:59:04.546Z,4.50
2019-01-08T23:01:38.842Z,4.40
2019-01-08T23:04:12.742Z,4.50
2019-01-08T23:06:44.579Z,4.50
2019-01-08T23:09:16.386Z,4.60
2019-01-08T23:11:48.035Z,4.50
2019-01-08T23:14:19.785Z,4.50
2019-01-08T23:16:51.556Z,4.50
2019-01-08T23:19:22.941Z,4.50
2019-01-08T23:21:54.896Z,4.40
2019-01-08T23:24:27.057Z,4.40
2019-01-08T23:26:58.829Z,4.40
2019-01-08T23:29:30.164Z,4.40
2019-01-08T23:32:01.700Z,4.40
2019-01-08T23:34:33.075Z,4.40
2019-01-08T23:37:04.628Z,4.40
2019-01-08T23:39:36.188Z,4.40
2019-01-08T23:42:07.672Z,4.30
2019-01-08T23:44:39.124Z,4.40
2019-01-08T23:47:10.716Z,4.40
2019-01-08T23:49:42.650Z,4.40
2019-01-08T23:52:23.399Z,4.30
2019-01-08T23:54:56.268Z,4.40
2019-01-08T23:57:29.563Z,4.40
